Time;durP1;ratioP1;P1;durP2;ratioP2;P2;SDS_P1;SDS_P2;PMS_P1;PMS_P2;Temp;Humidity;BMP_temperature;BMP_pressure;BME280_temperature;BME280_humidity;BME280_pressure;Samples;Min_cycle;Max_cycle;Signal;HPM_P1;HPM_P2
2022/08/24 00:00:08;;;;;;;;;;;;;;;18.32;51.91;96642.94;5042614;28;19958;-78
2022/08/24 00:02:34;;;;;;;;;;;;;;;18.29;51.79;96644.25;5050938;28;19964;-78
2022/08/24 00:05:00;;;;;;;;;;;;;;;18.28;52.51;96645.31;5049798;28;20009;-78
2022/08/24 00:07:26;;;;;;;;;;;;;;;18.25;52.09;96638.66;5045184;28;19967;-78
2022/08/24 00:09:52;;;;;;;;;;;;;;;18.24;52.26;96644.22;5044350;28;20330;-78
2022/08/24 00:12:18;;;;;;;;;;;;;;;18.20;52.26;96633.34;5047932;28;19970;-79
2022/08/24 00:14:44;;;;;;;;;;;;;;;18.19;52.31;96634.41;5050602;28;19956;-78
2022/08/24 00:17:10;;;;;;;;;;;;;;;18.17;52.28;96636.53;5040001;28;20375;-78
2022/08/24 00:19:37;;;;;;;;;;;;;;;18.15;52.28;96629.88;5050176;28;20334;-78
2022/08/24 00:22:03;;;;;;;;;;;;;;;18.14;52.24;96631.75;5043159;28;19970;-78
2022/08/24 00:24:29;;;;;;;;;;;;;;;18.12;52.23;96628.56;5044125;28;19967;-78
2022/08/24 00:26:55;;;;;;;;;;;;;;;18.11;52.53;96631.47;5039441;28;20491;-78
2022/08/24 00:29:21;;;;;;;;;;;;;;;18.08;52.46;96635.44;5051721;28;20050;-78
2022/08/24 00:31:47;;;;;;;;;;;;;;;18.04;52.69;96634.38;5050521;28;19974;-78
2022/08/24 00:34:13;;;;;;;;;;;;;;;17.99;52.83;96624.50;5047052;28;19958;-78
2022/08/24 00:36:39;;;;;;;;;;;;;;;17.96;53.56;96640.97;5042585;28;20307;-78
2022/08/24 00:39:06;;;;;;;;;;;;;;;17.93;53.30;96641.50;5042161;28;19972;-78
2022/08/24 00:41:32;;;;;;;;;;;;;;;17.87;53.27;96637.22;5043541;28;19965;-78
2022/08/24 00:44:00;;;;;;;;;;;;;;;17.83;53.67;96638.81;5043972;28;19965;-78
2022/08/24 00:46:27;;;;;;;;;;;;;;;17.81;53.38;96636.38;5051386;28;20006;-78
2022/08/24 00:48:58;;;;;;;;;;;;;;;17.79;53.28;96629.75;5044135;28;19964;-78
2022/08/24 00:51:29;;;;;;;;;;;;;;;17.75;53.63;96636.63;5046079;28;19991;-78
2022/08/24 00:53:57;;;;;;;;;;;;;;;17.71;53.83;96638.19;5041317;28;20446;-79
2022/08/24 00:56:25;;;;;;;;;;;;;;;17.66;54.03;96638.97;5046917;28;19958;-78
2022/08/24 00:58:54;;;;;;;;;;;;;;;17.63;53.60;96640.25;5048699;28;19969;-78
2022/08/24 01:01:20;;;;;;;;;;;;;;;17.61;54.27;96638.94;5044941;28;19952;-78
2022/08/24 01:03:46;;;;;;;;;;;;;;;17.57;54.29;96633.34;5046218;28;20435;-78
2022/08/24 01:06:12;;;;;;;;;;;;;;;17.56;54.04;96636.25;5050669;28;20050;-78
2022/08/24 01:08:39;;;;;;;;;;;;;;;17.55;53.53;96629.34;5043244;28;19963;-78
2022/08/24 01:11:11;;;;;;;;;;;;;;;17.54;53.42;96631.22;5040149;28;19985;-78
2022/08/24 01:13:37;;;;;;;;;;;;;;;17.53;53.93;96632.25;5046281;28;19957;-78
2022/08/24 01:16:05;;;;;;;;;;;;;;;17.49;54.43;96631.19;5049678;28;19960;-78
2022/08/24 01:18:50;;;;;;;;;;;;;;;17.45;54.67;96633.56;5044672;28;19961;-78
2022/08/24 01:21:21;;;;;;;;;;;;;;;17.41;54.73;96634.34;5039888;28;20325;-78
2022/08/24 01:23:49;;;;;;;;;;;;;;;17.37;54.54;96634.03;5046874;28;20412;-78
2022/08/24 01:26:18;;;;;;;;;;;;;;;17.35;54.48;96638.00;5046543;28;19978;-78
2022/08/24 01:28:46;;;;;;;;;;;;;;;17.32;54.48;96643.81;5044793;28;20011;-78
2022/08/24 01:31:12;;;;;;;;;;;;;;;17.28;54.69;96643.50;5034857;28;19967;-78
2022/08/24 01:33:38;;;;;;;;;;;;;;;17.24;55.14;96643.25;5030793;28;19964;-78
2022/08/24 01:36:24;;;;;;;;;;;;;;;17.20;55.35;96641.38;5045066;28;20957;-78
2022/08/24 01:38:50;;;;;;;;;;;;;;;17.15;55.57;96633.34;5044431;28;19953;-78
2022/08/24 01:41:16;;;;;;;;;;;;;;;17.12;55.40;96632.03;5059401;28;20405;-78
2022/08/24 01:43:42;;;;;;;;;;;;;;;17.08;55.66;96633.59;5041805;28;20000;-78
2022/08/24 01:46:08;;;;;;;;;;;;;;;17.06;55.73;96640.19;5040595;28;20408;-78
2022/08/24 01:48:33;;;;;;;;;;;;;;;17.01;55.75;96636.47;5050541;28;19956;-78
2022/08/24 01:50:59;;;;;;;;;;;;;;;16.96;56.00;96636.41;5044669;28;20101;-78
2022/08/24 01:53:25;;;;;;;;;;;;;;;16.95;55.82;96634.03;5044290;28;20367;-78
2022/08/24 01:55:51;;;;;;;;;;;;;;;16.92;56.18;96643.25;5044262;28;20047;-78
2022/08/24 01:58:17;;;;;;;;;;;;;;;16.88;56.09;96646.69;5045107;28;19963;-78
2022/08/24 02:00:43;;;;;;;;;;;;;;;16.84;56.07;96647.19;5044284;28;19959;-78
2022/08/24 02:03:09;;;;;;;;;;;;;;;16.82;56.38;96640.56;5045184;28;19963;-78
2022/08/24 02:05:35;;;;;;;;;;;;;;;16.79;56.36;96641.81;5042305;28;19952;-78
2022/08/24 02:08:02;;;;;;;;;;;;;;;16.77;56.07;96637.81;5044943;28;19961;-78
2022/08/24 02:10:28;;;;;;;;;;;;;;;16.75;55.97;96639.91;5043674;28;19964;-78
2022/08/24 02:12:57;;;;;;;;;;;;;;;16.73;56.01;96637.50;5046558;28;19974;-78
2022/08/24 02:15:36;;;;;;;;;;;;;;;16.71;55.77;96639.63;5051709;28;20321;-78
2022/08/24 02:18:03;;;;;;;;;;;;;;;16.70;56.14;96648.63;5044711;28;19955;-78
2022/08/24 02:20:29;;;;;;;;;;;;;;;16.68;55.94;96652.59;5043786;28;20449;-78
2022/08/24 02:22:55;;;;;;;;;;;;;;;16.66;56.50;96644.88;5044219;28;20396;-78
2022/08/24 02:25:23;;;;;;;;;;;;;;;16.64;57.25;96652.28;5044701;28;19989;-78
2022/08/24 02:27:49;;;;;;;;;;;;;;;16.59;57.39;96646.94;5041661;28;19975;-78
2022/08/24 02:30:15;;;;;;;;;;;;;;;16.55;57.01;96644.00;5041190;28;20455;-78
2022/08/24 02:32:41;;;;;;;;;;;;;;;16.51;57.19;96650.06;5037750;28;19981;-78
2022/08/24 02:35:07;;;;;;;;;;;;;;;16.48;56.78;96645.25;5046490;28;20443;-78
2022/08/24 02:37:34;;;;;;;;;;;;;;;16.47;57.02;96649.75;5032245;28;19963;-78
2022/08/24 02:40:00;;;;;;;;;;;;;;;16.43;57.09;96646.00;5039790;28;19993;-77
2022/08/24 02:42:26;;;;;;;;;;;;;;;16.40;57.67;96647.31;5039190;28;19967;-78
2022/08/24 02:44:54;;;;;;;;;;;;;;;16.36;58.20;96648.06;5048613;28;19966;-78
2022/08/24 02:47:20;;;;;;;;;;;;;;;16.31;58.00;96645.34;5046220;28;19965;-78
2022/08/24 02:49:47;;;;;;;;;;;;;;;16.28;58.00;96644.00;5041648;28;21143;-77
2022/08/24 02:52:13;;;;;;;;;;;;;;;16.25;58.33;96639.19;5045243;28;19966;-77
2022/08/24 02:54:40;;;;;;;;;;;;;;;16.21;58.04;96638.91;5039122;28;19978;-78
2022/08/24 02:57:06;;;;;;;;;;;;;;;16.19;58.32;96641.00;5036946;28;19964;-78
2022/08/24 02:59:32;;;;;;;;;;;;;;;16.15;58.98;96644.41;5045423;28;20430;-78
2022/08/24 03:01:58;;;;;;;;;;;;;;;16.12;58.77;96647.53;5045625;28;19967;-78
2022/08/24 03:04:24;;;;;;;;;;;;;;;16.08;58.92;96649.06;5041348;28;20410;-78
2022/08/24 03:06:50;;;;;;;;;;;;;;;16.04;59.38;96654.03;5039938;28;19963;-78
2022/08/24 03:09:16;;;;;;;;;;;;;;;15.99;59.38;96646.84;5046877;28;20050;-78
2022/08/24 03:11:42;;;;;;;;;;;;;;;15.94;59.60;96644.16;5045007;28;19971;-78
2022/08/24 03:14:08;;;;;;;;;;;;;;;15.92;59.59;96632.25;5039162;28;20293;-78
2022/08/24 03:16:34;;;;;;;;;;;;;;;15.87;59.77;96635.59;5042100;28;19967;-78
2022/08/24 03:19:00;;;;;;;;;;;;;;;15.83;59.95;96637.97;5047910;28;19993;-77
2022/08/24 03:21:27;;;;;;;;;;;;;;;15.79;59.52;96642.13;5043981;28;19964;-78
2022/08/24 03:23:53;;;;;;;;;;;;;;;15.77;59.38;96633.66;5041002;28;19957;-78
2022/08/24 03:26:19;;;;;;;;;;;;;;;15.75;59.83;96637.59;5043936;28;20031;-78
2022/08/24 03:28:45;;;;;;;;;;;;;;;15.71;59.96;96645.19;5046435;28;20007;-78
2022/08/24 03:31:11;;;;;;;;;;;;;;;15.68;60.30;96648.28;5042529;28;20044;-78
2022/08/24 03:33:37;;;;;;;;;;;;;;;15.67;60.24;96651.22;5038695;28;19967;-77
2022/08/24 03:36:03;;;;;;;;;;;;;;;15.65;60.18;96645.38;5043054;28;19968;-77
2022/08/24 03:38:28;;;;;;;;;;;;;;;15.63;60.28;96643.75;5062453;28;19967;-77
2022/08/24 03:40:55;;;;;;;;;;;;;;;15.63;60.46;96642.97;5045760;28;20340;-78
2022/08/24 03:46:06;;;;;;;;;;;;;;;15.56;60.23;96643.13;5043181;28;20404;-80
2022/08/24 03:48:32;;;;;;;;;;;;;;;15.55;60.55;96646.81;5043508;28;19962;-77
2022/08/24 03:50:58;;;;;;;;;;;;;;;15.52;60.33;96631.47;5045037;28;19999;-80
2022/08/24 03:53:24;;;;;;;;;;;;;;;15.51;60.28;96635.13;5046388;28;20016;-78
2022/08/24 03:55:50;;;;;;;;;;;;;;;15.51;60.11;96635.13;5038553;28;20029;-78
2022/08/24 03:58:16;;;;;;;;;;;;;;;15.50;60.33;96644.13;5044433;28;19983;-78
2022/08/24 04:00:42;;;;;;;;;;;;;;;15.50;60.39;96641.47;5041164;28;19985;-78
2022/08/24 04:03:08;;;;;;;;;;;;;;;15.50;60.55;96646.75;5042340;28;19951;-77
2022/08/24 04:05:35;;;;;;;;;;;;;;;15.50;60.01;96646.75;5043897;28;19955;-78
2022/08/24 04:08:02;;;;;;;;;;;;;;;15.50;60.20;96648.59;5063696;28;20419;-78
2022/08/24 04:10:28;;;;;;;;;;;;;;;15.48;60.56;96656.78;5044728;28;19970;-78
2022/08/24 04:12:53;;;;;;;;;;;;;;;15.47;60.10;96654.38;5040426;28;19974;-78
2022/08/24 04:15:19;;;;;;;;;;;;;;;15.47;59.86;96655.16;5046248;28;19963;-78
2022/08/24 04:17:45;;;;;;;;;;;;;;;15.45;60.35;96654.59;5047831;28;20002;-78
2022/08/24 04:20:11;;;;;;;;;;;;;;;15.44;60.04;96647.72;5043564;28;20025;-78
2022/08/24 04:22:37;;;;;;;;;;;;;;;15.45;60.40;96645.88;5044965;28;19970;-78
2022/08/24 04:25:04;;;;;;;;;;;;;;;15.43;60.11;96654.03;5037710;28;20459;-78
2022/08/24 04:27:30;;;;;;;;;;;;;;;15.43;60.14;96646.13;5046433;28;19967;-77
2022/08/24 04:29:56;;;;;;;;;;;;;;;15.42;59.89;96647.16;5048455;28;19961;-78
2022/08/24 04:32:22;;;;;;;;;;;;;;;15.42;59.96;96650.59;5038139;28;20055;-78
2022/08/24 04:34:48;;;;;;;;;;;;;;;15.41;59.71;96648.19;5043536;28;20003;-77
2022/08/24 04:37:14;;;;;;;;;;;;;;;15.41;59.76;96654.31;5045031;28;19963;-78
2022/08/24 04:39:40;;;;;;;;;;;;;;;15.42;59.79;96647.97;5042366;28;19963;-78
2022/08/24 04:42:06;;;;;;;;;;;;;;;15.42;59.54;96655.09;5045039;28;19969;-77
2022/08/24 04:44:32;;;;;;;;;;;;;;;15.45;59.84;96667.81;5037654;28;20049;-78
2022/08/24 04:46:58;;;;;;;;;;;;;;;15.45;60.50;96670.47;5043810;28;19964;-78
2022/08/24 04:49:24;;;;;;;;;;;;;;;15.40;60.63;96673.03;5047208;28;19974;-78
2022/08/24 04:51:50;;;;;;;;;;;;;;;15.36;60.92;96680.66;5045835;28;20446;-77
2022/08/24 04:54:16;;;;;;;;;;;;;;;15.34;60.94;96681.94;5046535;28;20001;-78
2022/08/24 04:56:42;;;;;;;;;;;;;;;15.32;61.53;96689.31;5046681;28;19967;-78
2022/08/24 04:59:08;;;;;;;;;;;;;;;15.29;61.59;96682.66;5047015;28;19955;-77
2022/08/24 05:01:34;;;;;;;;;;;;;;;15.27;61.59;96682.09;5043930;28;19963;-77
2022/08/24 05:04:00;;;;;;;;;;;;;;;15.25;61.59;96680.75;5050460;28;20347;-78
2022/08/24 05:06:27;;;;;;;;;;;;;;;15.28;61.80;96686.34;5051532;28;19970;-78
2022/08/24 05:08:53;;;;;;;;;;;;;;;15.37;61.62;96686.72;5039948;28;19956;-78
2022/08/24 05:11:19;;;;;;;;;;;;;;;15.52;61.92;96692.25;5045074;28;20406;-77
2022/08/24 05:13:45;;;;;;;;;;;;;;;15.74;61.29;96687.00;5045040;28;20034;-78
2022/08/24 05:16:13;;;;;;;;;;;;;;;15.97;60.51;96672.75;5047608;28;19955;-78
2022/08/24 05:18:40;;;;;;;;;;;;;;;16.27;60.17;96676.00;5045206;28;19961;-78
2022/08/24 05:21:09;;;;;;;;;;;;;;;16.56;59.58;96671.25;5043661;28;19981;-78
2022/08/24 05:23:36;;;;;;;;;;;;;;;16.88;58.87;96673.94;5045178;28;19963;-78
2022/08/24 05:26:04;;;;;;;;;;;;;;;17.20;58.07;96663.34;5046337;28;20008;-78
2022/08/24 05:28:30;;;;;;;;;;;;;;;17.53;57.29;96669.38;5045726;28;19972;-78
2022/08/24 05:31:04;;;;;;;;;;;;;;;17.81;56.46;96654.94;5049009;28;19962;-78
2022/08/24 05:33:30;;;;;;;;;;;;;;;18.17;55.98;96644.50;5043839;28;20340;-78
2022/08/24 05:35:56;;;;;;;;;;;;;;;18.55;54.58;96637.13;5042265;28;20058;-78
2022/08/24 05:38:21;;;;;;;;;;;;;;;18.92;54.25;96633.47;5045669;28;20025;-78
2022/08/24 05:40:47;;;;;;;;;;;;;;;19.31;53.15;96632.06;5050455;28;20033;-78
2022/08/24 05:43:13;;;;;;;;;;;;;;;19.60;52.40;96625.09;5040053;28;19959;-78
2022/08/24 05:45:40;;;;;;;;;;;;;;;19.75;51.78;96626.91;5046222;28;19958;-78
2022/08/24 05:48:06;;;;;;;;;;;;;;;19.99;51.26;96626.28;5047345;28;19957;-78
2022/08/24 05:50:32;;;;;;;;;;;;;;;20.18;50.68;96623.78;5049807;28;20079;-78
2022/08/24 05:52:57;;;;;;;;;;;;;;;20.29;50.17;96628.00;5041445;28;20067;-78
2022/08/24 05:55:23;;;;;;;;;;;;;;;20.35;50.27;96631.41;5042138;28;19962;-79
2022/08/24 05:57:49;;;;;;;;;;;;;;;20.36;50.17;96633.81;5047270;28;20408;-78
2022/08/24 06:00:16;;;;;;;;;;;;;;;20.41;50.22;96643.63;5044568;28;20051;-78
2022/08/24 06:02:42;;;;;;;;;;;;;;;20.48;49.83;96649.47;5044586;28;19958;-79
2022/08/24 06:05:08;;;;;;;;;;;;;;;20.48;49.32;96642.25;5046366;28;19956;-79
2022/08/24 06:07:34;;;;;;;;;;;;;;;20.38;48.92;96634.34;5059308;28;19961;-78
2022/08/24 06:10:00;;;;;;;;;;;;;;;20.27;49.34;96638.94;5039886;28;19967;-79
2022/08/24 06:12:26;;;;;;;;;;;;;;;20.23;49.07;96645.06;5045592;28;19976;-78
2022/08/24 06:14:53;;;;;;;;;;;;;;;20.21;49.20;96641.91;5048733;28;20441;-79
2022/08/24 06:17:19;;;;;;;;;;;;;;;20.15;49.79;96649.09;5053475;28;19957;-79
2022/08/24 06:19:45;;;;;;;;;;;;;;;20.16;49.53;96642.72;5044857;28;20052;-79
2022/08/24 06:22:11;;;;;;;;;;;;;;;20.01;49.63;96642.78;5045469;28;19986;-78
2022/08/24 06:27:21;;;;;;;;;;;;;;;20.06;50.46;96648.88;5050184;28;19972;-79
2022/08/24 06:29:58;;;;;;;;;;;;;;;20.24;49.84;96639.50;5024202;28;19956;-79
2022/08/24 06:32:24;;;;;;;;;;;;;;;20.41;50.28;96647.13;5041181;28;19977;-79
2022/08/24 06:34:54;;;;;;;;;;;;;;;20.67;49.54;96637.09;5045710;28;19974;-78
2022/08/24 06:37:25;;;;;;;;;;;;;;;21.00;49.57;96636.59;5045134;28;19962;-79
2022/08/24 06:39:51;;;;;;;;;;;;;;;21.32;48.88;96633.34;5042087;28;19973;-79
2022/08/24 06:42:17;;;;;;;;;;;;;;;21.59;48.08;96632.03;5035590;28;20339;-79
2022/08/24 06:44:43;;;;;;;;;;;;;;;21.72;47.02;96635.91;5043899;28;19964;-79
2022/08/24 06:47:10;;;;;;;;;;;;;;;21.82;47.82;96633.91;5041926;28;19954;-79
2022/08/24 06:49:36;;;;;;;;;;;;;;;22.02;46.27;96632.06;5042260;28;19961;-79
2022/08/24 06:52:05;;;;;;;;;;;;;;;22.22;47.03;96634.47;5049735;28;19961;-79
2022/08/24 06:54:31;;;;;;;;;;;;;;;22.41;45.59;96636.38;5045350;28;19968;-79
2022/08/24 06:56:58;;;;;;;;;;;;;;;22.38;45.50;96648.41;5037040;28;19970;-79
2022/08/24 06:59:27;;;;;;;;;;;;;;;22.33;45.30;96648.50;5044656;28;19973;-79
2022/08/24 07:01:54;;;;;;;;;;;;;;;22.40;45.78;96648.94;5049661;28;19964;-79
2022/08/24 07:04:21;;;;;;;;;;;;;;;22.44;45.94;96649.94;5044341;28;20412;-78
2022/08/24 07:06:47;;;;;;;;;;;;;;;22.53;45.42;96647.41;5037420;28;19969;-79
2022/08/24 07:09:13;;;;;;;;;;;;;;;22.58;45.23;96641.22;5044154;28;20407;-78
2022/08/24 07:11:39;;;;;;;;;;;;;;;22.52;45.02;96653.06;5046500;28;20140;-78
2022/08/24 07:14:05;;;;;;;;;;;;;;;22.42;45.06;96651.31;5040688;28;19971;-79
2022/08/24 07:16:32;;;;;;;;;;;;;;;22.29;45.97;96663.53;5043440;28;19972;-79
2022/08/24 07:18:59;;;;;;;;;;;;;;;22.33;46.31;96659.19;5043760;28;19960;-78
2022/08/24 07:21:25;;;;;;;;;;;;;;;22.40;45.85;96656.16;5042949;28;19962;-79
2022/08/24 07:23:55;;;;;;;;;;;;;;;22.38;46.53;96661.00;5043531;28;19974;-79
2022/08/24 07:26:23;;;;;;;;;;;;;;;22.37;46.04;96654.84;5062085;28;20437;-78
2022/08/24 07:28:49;;;;;;;;;;;;;;;22.26;45.33;96661.44;5041007;28;19959;-78
2022/08/24 07:31:15;;;;;;;;;;;;;;;22.29;45.71;96658.97;5042221;28;19959;-79
2022/08/24 07:33:41;;;;;;;;;;;;;;;22.38;45.51;96664.44;5048525;28;20341;-79
2022/08/24 07:36:07;;;;;;;;;;;;;;;22.49;45.22;96651.78;5045965;28;19971;-79
2022/08/24 07:38:33;;;;;;;;;;;;;;;22.67;45.37;96653.63;5040868;28;20064;-79
2022/08/24 07:40:59;;;;;;;;;;;;;;;22.89;45.06;96647.66;5044115;28;20481;-78
2022/08/24 07:43:25;;;;;;;;;;;;;;;23.04;43.74;96646.66;5046122;28;19964;-79
2022/08/24 07:45:51;;;;;;;;;;;;;;;23.13;43.98;96654.00;5045228;28;19964;-79
2022/08/24 07:48:17;;;;;;;;;;;;;;;23.25;43.70;96649.78;5040992;28;19958;-79
2022/08/24 07:50:43;;;;;;;;;;;;;;;23.35;43.56;96648.00;5040041;28;19962;-79
2022/08/24 07:53:09;;;;;;;;;;;;;;;23.44;44.08;96647.03;5043587;28;20421;-79
2022/08/24 07:55:35;;;;;;;;;;;;;;;23.61;44.28;96654.47;5032186;28;19993;-79
2022/08/24 07:58:01;;;;;;;;;;;;;;;;;;5042467;28;19963;-79
2022/08/24 08:00:27;;;;;;;;;;;;;;;24.01;42.84;96644.09;5047018;28;19952;-79
2022/08/24 08:02:53;;;;;;;;;;;;;;;24.17;42.94;96652.59;5042601;28;20034;-79
2022/08/24 08:05:21;;;;;;;;;;;;;;;24.33;42.72;96650.38;5038281;28;19955;-79
2022/08/24 08:07:47;;;;;;;;;;;;;;;24.43;41.96;96650.16;5043653;28;19964;-79
2022/08/24 08:10:13;;;;;;;;;;;;;;;24.52;42.45;96647.56;5045269;28;19958;-79
2022/08/24 08:12:39;;;;;;;;;;;;;;;24.62;42.14;96655.38;5046834;28;19977;-79
2022/08/24 08:15:08;;;;;;;;;;;;;;;24.70;41.97;96654.66;5039729;28;20032;-79
2022/08/24 08:17:37;;;;;;;;;;;;;;;24.74;40.77;96657.53;5045453;28;19974;-79
2022/08/24 08:20:07;;;;;;;;;;;;;;;24.85;40.91;96658.88;5044964;28;19954;-79
2022/08/24 08:25:18;;;;;;;;;;;;;;;25.06;40.96;96661.84;5045140;28;20437;-79
2022/08/24 08:27:44;;;;;;;;;;;;;;;25.21;41.36;96663.41;5046238;28;19971;-79
2022/08/24 08:30:10;;;;;;;;;;;;;;;25.35;40.81;96657.19;5049378;28;19961;-79
2022/08/24 08:32:36;;;;;;;;;;;;;;;25.46;40.08;96648.53;5052592;28;19984;-79
2022/08/24 08:35:02;;;;;;;;;;;;;;;25.52;39.89;96655.34;5043040;28;19955;-79
2022/08/24 08:37:28;;;;;;;;;;;;;;;25.56;41.11;96666.28;5044952;28;19984;-80
2022/08/24 08:39:54;;;;;;;;;;;;;;;25.67;39.87;96661.41;5044371;28;19959;-79
2022/08/24 08:42:23;;;;;;;;;;;;;;;25.82;40.00;96649.47;5049089;28;19959;-79
2022/08/24 08:44:54;;;;;;;;;;;;;;;26.00;39.70;96653.81;5052540;28;20426;-79
2022/08/24 08:47:42;;;;;;;;;;;;;;;26.15;38.88;96646.41;5049179;28;19973;-80
2022/08/24 08:50:09;;;;;;;;;;;;;;;26.27;39.94;96647.38;5040851;28;19958;-79
2022/08/24 08:52:53;;;;;;;;;;;;;;;26.41;38.93;96643.75;5042570;28;19978;-80
2022/08/24 08:55:26;;;;;;;;;;;;;;;26.51;37.83;96644.22;5046396;28;19957;-80
2022/08/24 08:57:52;;;;;;;;;;;;;;;26.64;36.62;96637.13;5051563;28;20427;-79
2022/08/24 09:00:21;;;;;;;;;;;;;;;26.62;35.79;96652.00;5044239;28;19959;-80
2022/08/24 09:02:55;;;;;;;;;;;;;;;26.66;35.96;96643.00;5044422;28;19962;-80
2022/08/24 09:05:41;;;;;;;;;;;;;;;26.70;34.77;96640.47;5042376;28;19966;-80
2022/08/24 09:08:18;;;;;;;;;;;;;;;26.77;36.98;96648.84;5046944;28;19961;-80
2022/08/24 09:10:55;;;;;;;;;;;;;;;26.77;36.52;96645.34;5051745;28;19966;-79
2022/08/24 09:13:50;;;;;;;;;;;;;;;26.66;35.53;96650.28;5046980;28;19974;-80
2022/08/24 09:16:27;;;;;;;;;;;;;;;26.68;35.19;96638.09;5020384;28;19957;-80
2022/08/24 09:18:59;;;;;;;;;;;;;;;26.78;34.82;96647.75;5043289;28;19965;-79
2022/08/24 09:21:30;;;;;;;;;;;;;;;26.81;35.10;96657.06;5024135;28;19958;-79
2022/08/24 09:23:59;;;;;;;;;;;;;;;26.81;32.85;96647.09;5047027;28;19959;-79
2022/08/24 09:26:38;;;;;;;;;;;;;;;26.83;34.16;96650.25;5045644;28;19987;-80
2022/08/24 09:29:07;;;;;;;;;;;;;;;26.95;33.20;96641.53;5047786;28;19958;-79
2022/08/24 09:31:33;;;;;;;;;;;;;;;26.83;32.71;96634.09;5045678;28;19962;-79
2022/08/24 09:34:17;;;;;;;;;;;;;;;26.97;34.73;96652.78;5043298;28;19998;-80
2022/08/24 09:36:47;;;;;;;;;;;;;;;27.14;31.73;96636.59;5041477;28;19972;-79
2022/08/24 09:39:32;;;;;;;;;;;;;;;27.23;34.70;96643.88;5048302;28;20346;-80
2022/08/24 09:42:10;;;;;;;;;;;;;;;27.28;32.27;96633.75;5047092;28;19968;-80
2022/08/24 09:44:42;;;;;;;;;;;;;;;27.29;30.75;96629.94;5046341;28;20306;-79
2022/08/24 09:47:14;;;;;;;;;;;;;;;27.23;31.05;96639.28;5044912;28;19957;-79
2022/08/24 09:49:43;;;;;;;;;;;;;;;27.21;30.93;96625.31;5044707;28;19955;-79
2022/08/24 09:52:20;;;;;;;;;;;;;;;27.34;33.93;96642.44;5049111;28;19960;-80
2022/08/24 09:54:46;;;;;;;;;;;;;;;27.40;28.36;96626.88;5049328;28;19974;-80
2022/08/24 09:57:15;;;;;;;;;;;;;;;27.42;30.63;96633.53;5040115;28;20048;-80
2022/08/24 09:59:47;;;;;;;;;;;;;;;27.49;30.36;96638.44;5046757;28;19963;-80
2022/08/24 10:02:16;;;;;;;;;;;;;;;27.49;30.38;96641.91;5048020;28;20330;-80
2022/08/24 10:05:02;;;;;;;;;;;;;;;27.52;30.07;96635.88;5047688;28;19969;-80
2022/08/24 10:07:31;;;;;;;;;;;;;;;27.53;29.34;96644.75;5046255;28;19964;-79
2022/08/24 10:09:56;;;;;;;;;;;;;;;27.39;28.06;96638.78;5041965;28;19957;-80
2022/08/24 10:12:41;;;;;;;;;;;;;;;27.39;29.83;96647.66;5046189;28;19956;-80
2022/08/24 10:15:09;;;;;;;;;;;;;;;27.53;30.91;96644.75;5047569;28;19952;-80
2022/08/24 10:17:35;;;;;;;;;;;;;;;27.57;29.00;96637.59;5045999;28;19976;-79
2022/08/24 10:20:01;;;;;;;;;;;;;;;27.56;28.26;96619.84;5043771;28;20400;-80
2022/08/24 10:22:30;;;;;;;;;;;;;;;27.64;30.08;96632.50;5042619;28;19984;-80
2022/08/24 10:25:21;;;;;;;;;;;;;;;27.82;29.98;96627.03;5040017;28;19986;-80
2022/08/24 10:27:59;;;;;;;;;;;;;;;27.99;29.77;96621.56;5050958;28;19970;-81
2022/08/24 10:30:43;;;;;;;;;;;;;;;28.04;29.53;96617.91;5045934;28;19963;-81
2022/08/24 10:33:12;;;;;;;;;;;;;;;28.20;29.76;96618.09;5036825;28;19970;-81
2022/08/24 10:35:53;;;;;;;;;;;;;;;28.42;29.17;96611.59;5046102;28;19960;-81
2022/08/24 10:41:03;;;;;;;;;;;;;;;28.85;28.82;96603.16;5041847;28;19967;-81
2022/08/24 10:43:32;;;;;;;;;;;;;;;28.70;28.94;96615.34;5049674;28;19966;-81
2022/08/24 10:46:08;;;;;;;;;;;;;;;28.69;28.27;96602.19;5042902;28;19962;-80
2022/08/24 10:48:45;;;;;;;;;;;;;;;28.81;28.95;96602.25;5042108;28;19957;-80
2022/08/24 10:51:30;;;;;;;;;;;;;;;28.88;27.07;96607.09;5058757;28;19958;-79
2022/08/24 10:53:57;;;;;;;;;;;;;;;28.68;26.97;96595.22;5033188;28;19978;-79
2022/08/24 10:56:35;;;;;;;;;;;;;;;28.66;28.19;96609.03;5043279;28;19966;-81
2022/08/24 10:59:07;;;;;;;;;;;;;;;28.78;27.78;96597.50;5044939;28;20432;-80
2022/08/24 11:01:34;;;;;;;;;;;;;;;28.80;27.74;96605.28;5046919;28;19954;-79
2022/08/24 11:04:03;;;;;;;;;;;;;;;28.69;27.29;96604.91;5046095;28;20431;-80
2022/08/24 11:06:30;;;;;;;;;;;;;;;28.76;28.15;96607.06;5040419;28;19969;-81
2022/08/24 11:09:05;;;;;;;;;;;;;;;28.89;27.03;96597.88;5047517;28;19954;-79
2022/08/24 11:11:33;;;;;;;;;;;;;;;28.98;27.73;96595.88;5045341;28;20323;-80
2022/08/24 11:14:04;;;;;;;;;;;;;;;29.11;27.26;96599.44;5044658;28;19975;-80
2022/08/24 11:16:32;;;;;;;;;;;;;;;29.26;27.96;96589.88;5044058;28;20348;-80
2022/08/24 11:19:00;;;;;;;;;;;;;;;29.18;26.41;96585.38;5043090;28;19957;-80
2022/08/24 11:21:32;;;;;;;;;;;;;;;29.27;27.40;96597.66;5041154;28;19956;-80
2022/08/24 11:24:02;;;;;;;;;;;;;;;29.40;26.99;96589.53;5043247;28;19956;-81
2022/08/24 11:26:29;;;;;;;;;;;;;;;29.58;27.45;96582.81;5049767;28;20002;-81
2022/08/24 11:28:59;;;;;;;;;;;;;;;29.59;26.37;96587.09;5042428;28;19983;-80
2022/08/24 11:31:28;;;;;;;;;;;;;;;29.52;27.06;96587.66;5028562;28;19980;-80
2022/08/24 11:33:59;;;;;;;;;;;;;;;29.44;27.21;96583.16;5041482;28;20341;-80
2022/08/24 11:36:26;;;;;;;;;;;;;;;29.45;27.80;96582.00;5049316;28;19970;-80
2022/08/24 11:39:11;;;;;;;;;;;;;;;29.48;27.23;96580.53;5046141;28;19963;-80
2022/08/24 11:41:57;;;;;;;;;;;;;;;29.66;27.36;96578.41;5027984;28;19957;-80
2022/08/24 11:44:32;;;;;;;;;;;;;;;29.57;26.14;96583.13;5042218;28;19955;-79
2022/08/24 11:47:04;;;;;;;;;;;;;;;29.62;27.03;96583.69;5040495;28;20362;-81
2022/08/24 11:49:49;;;;;;;;;;;;;;;29.75;27.16;96579.88;5046242;28;19959;-80
2022/08/24 11:52:21;;;;;;;;;;;;;;;29.66;26.01;96581.91;5044487;28;20323;-80
2022/08/24 11:54:54;;;;;;;;;;;;;;;29.79;27.13;96577.28;5043471;28;19976;-80
2022/08/24 11:57:27;;;;;;;;;;;;;;;29.61;25.98;96575.91;5047380;28;20411;-79
2022/08/24 11:59:55;;;;;;;;;;;;;;;29.63;26.70;96585.28;5047736;28;19957;-80
2022/08/24 12:02:25;;;;;;;;;;;;;;;29.89;26.67;96576.84;5051303;28;19977;-80
2022/08/24 12:04:51;;;;;;;;;;;;;;;30.13;26.78;96578.72;5047713;28;19957;-81
2022/08/24 12:07:22;;;;;;;;;;;;;;;30.42;26.07;96578.78;5043653;28;19954;-80
2022/08/24 12:09:57;;;;;;;;;;;;;;;30.38;25.35;96581.38;5044472;28;19966;-80
2022/08/24 12:12:28;;;;;;;;;;;;;;;30.29;25.65;96570.69;5051923;28;19955;-79
2022/08/24 12:15:00;;;;;;;;;;;;;;;30.20;25.36;96582.75;5048567;28;19977;-80
2022/08/24 12:17:26;;;;;;;;;;;;;;;30.13;25.44;96580.63;5048055;28;19965;-80
2022/08/24 12:19:54;;;;;;;;;;;;;;;30.10;24.68;96571.28;5046385;28;20021;-79
2022/08/24 12:22:21;;;;;;;;;;;;;;;30.12;25.62;96570.94;5040734;28;19953;-80
2022/08/24 12:24:49;;;;;;;;;;;;;;;30.13;25.48;96573.31;5045933;28;19962;-79
2022/08/24 12:27:19;;;;;;;;;;;;;;;30.12;25.65;96579.06;5047406;28;19965;-80
2022/08/24 12:29:45;;;;;;;;;;;;;;;30.05;24.70;96571.53;5046559;28;19955;-79
2022/08/24 12:32:13;;;;;;;;;;;;;;;30.02;26.02;96564.09;5045214;28;20357;-80
2022/08/24 12:34:58;;;;;;;;;;;;;;;29.99;25.70;96569.38;5046490;28;19972;-79
2022/08/24 12:37:27;;;;;;;;;;;;;;;29.88;25.72;96567.16;5046997;28;19958;-80
2022/08/24 12:39:56;;;;;;;;;;;;;;;29.95;26.53;96569.28;5047885;28;19954;-80
2022/08/24 12:42:48;;;;;;;;;;;;;;;30.22;26.11;96566.94;5051691;28;19971;-81
2022/08/24 12:45:16;;;;;;;;;;;;;;;30.45;26.03;96564.53;5039008;28;19956;-80
2022/08/24 12:48:00;;;;;;;;;;;;;;;30.58;25.89;96574.19;5048391;28;19959;-79
2022/08/24 12:50:34;;;;;;;;;;;;;;;30.48;25.08;96561.16;5038719;28;20362;-80
2022/08/24 12:53:00;;;;;;;;;;;;;;;30.48;25.58;96567.34;5043601;28;20415;-80
2022/08/24 12:56:01;;;;;;;;;;;;;;;30.42;25.38;96557.91;5045174;28;19969;-79
2022/08/24 12:58:46;;;;;;;;;;;;;;;30.35;24.68;96560.41;5025433;28;19959;-80
2022/08/24 13:01:14;;;;;;;;;;;;;;;30.23;24.65;96560.44;5040259;28;19956;-79
2022/08/24 13:03:41;;;;;;;;;;;;;;;30.22;25.31;96562.34;5051710;28;19957;-80
2022/08/24 13:06:15;;;;;;;;;;;;;;;30.17;24.73;96562.56;5044625;28;20342;-80